createdAt,value
2023-07-20T00:04:46.038Z,94696.81
2023-07-20T00:07:12.474Z,94695.50
2023-07-20T00:09:38.894Z,94698.91
2023-07-20T00:12:05.329Z,94700.63
2023-07-20T00:14:31.777Z,94707.03
2023-07-20T00:16:58.245Z,94709.47
2023-07-20T00:19:24.652Z,94711.25
2023-07-20T00:21:51.173Z,94706.91
2023-07-20T00:24:17.578Z,94706.56
2023-07-20T00:26:43.991Z,94704.78
2023-07-20T00:29:10.368Z,94708.41
2023-07-20T00:31:36.737Z,94701.84
2023-07-20T00:34:03.108Z,94705.91
2023-07-20T00:36:29.485Z,94712.25
2023-07-20T00:38:55.886Z,94711.91
2023-07-20T00:41:22.263Z,94708.97
2023-07-20T00:43:48.645Z,94708.00
2023-07-20T00:46:15.087Z,94719.66
2023-07-20T00:48:41.513Z,94714.41
2023-07-20T00:51:07.900Z,94699.41
2023-07-20T00:53:34.270Z,94706.38
2023-07-20T00:56:00.675Z,94705.00
2023-07-20T00:58:27.072Z,94704.50
2023-07-20T01:00:53.442Z,94698.94
2023-07-20T01:03:19.908Z,94704.88
2023-07-20T01:05:46.366Z,94702.94
2023-07-20T01:08:12.756Z,94701.38
2023-07-20T01:10:39.162Z,94694.09
2023-07-20T01:13:05.563Z,94698.97
2023-07-20T01:15:31.952Z,94696.66
2023-07-20T01:17:58.351Z,94704.69
2023-07-20T01:20:24.795Z,94690.38
2023-07-20T01:22:51.875Z,94690.06
2023-07-20T01:25:18.368Z,94701.44
2023-07-20T01:27:44.757Z,94696.91
2023-07-20T01:30:11.134Z,94695.28
2023-07-20T01:32:37.568Z,94689.44
2023-07-20T01:35:03.970Z,94685.69
2023-07-20T01:37:30.363Z,94681.50
2023-07-20T01:39:56.763Z,94684.88
2023-07-20T01:42:23.152Z,94681.63
2023-07-20T01:44:49.520Z,94682.69
2023-07-20T01:47:15.925Z,94684.44
2023-07-20T01:49:42.330Z,94678.03
2023-07-20T01:52:08.706Z,94671.63
2023-07-20T01:54:35.131Z,94678.75
2023-07-20T01:57:01.498Z,94672.38
2023-07-20T01:59:27.880Z,94672.00
2023-07-20T02:01:54.256Z,94673.75
2023-07-20T02:04:20.644Z,94679.56
2023-07-20T02:06:47.018Z,94685.28
2023-07-20T02:09:13.445Z,94684.47
2023-07-20T02:11:39.820Z,94685.06
2023-07-20T02:14:06.231Z,94682.38
2023-07-20T02:16:32.679Z,94692.03
2023-07-20T02:18:59.112Z,94687.28
2023-07-20T02:21:25.575Z,94684.81
2023-07-20T02:23:51.953Z,94688.53
2023-07-20T02:26:18.350Z,94687.50
2023-07-20T02:28:44.752Z,94692.03
2023-07-20T02:31:11.163Z,94694.47
2023-07-20T02:33:37.562Z,94690.41
2023-07-20T02:36:03.939Z,94690.44
2023-07-20T02:38:30.327Z,94689.03
2023-07-20T02:40:56.725Z,94689.84
2023-07-20T02:43:23.136Z,94694.47
2023-07-20T02:45:49.553Z,94697.97
2023-07-20T02:48:15.957Z,94702.50
2023-07-20T02:50:42.332Z,94708.78
2023-07-20T02:53:08.754Z,94701.69
2023-07-20T02:55:35.146Z,94702.97
2023-07-20T02:58:01.525Z,94699.94
2023-07-20T03:00:27.908Z,94699.94
2023-07-20T03:02:54.299Z,94701.09
2023-07-20T03:05:20.708Z,94699.50
2023-07-20T03:07:47.090Z,94696.72
2023-07-20T03:10:13.477Z,94699.03
2023-07-20T03:12:39.846Z,94700.06
2023-07-20T03:15:06.229Z,94700.06
2023-07-20T03:17:32.595Z,94698.09
2023-07-20T03:19:59.003Z,94701.81
2023-07-20T03:22:25.419Z,94704.81
2023-07-20T03:24:51.820Z,94694.16
2023-07-20T03:27:18.200Z,94691.03
2023-07-20T03:29:44.579Z,94695.56
2023-07-20T03:32:11.017Z,94688.81
2023-07-20T03:34:37.396Z,94686.25
2023-07-20T03:37:03.770Z,94693.56
2023-07-20T03:39:30.147Z,94692.78
2023-07-20T03:41:56.524Z,94684.28
2023-07-20T03:44:22.909Z,94697.19
2023-07-20T03:46:49.383Z,94692.09
2023-07-20T03:49:15.779Z,94700.78
2023-07-20T03:51:42.161Z,94701.91
2023-07-20T03:54:08.568Z,94702.75
2023-07-20T03:56:34.970Z,94699.84
2023-07-20T03:59:01.377Z,94703.09
2023-07-20T04:01:27.844Z,94697.53
2023-07-20T04:03:54.291Z,94705.31
2023-07-20T04:06:20.869Z,94698.44
2023-07-20T04:08:47.532Z,94701.25
2023-07-20T04:11:13.937Z,94711.34
2023-07-20T04:13:40.334Z,94712.97
2023-07-20T04:16:06.700Z,94704.81
2023-07-20T04:18:33.116Z,94709.81
2023-07-20T04:20:59.527Z,94701.91
2023-07-20T04:23:25.932Z,94709.94
2023-07-20T04:25:52.312Z,94710.78
2023-07-20T04:28:18.709Z,94706.13
2023-07-20T04:30:45.106Z,94709.47
2023-07-20T04:33:11.978Z,94706.31
2023-07-20T04:35:39.235Z,94701.59
2023-07-20T04:38:05.636Z,94701.81
2023-07-20T04:40:32.040Z,94704.84
2023-07-20T04:42:58.435Z,94704.16
2023-07-20T04:45:24.849Z,94703.31
2023-07-20T04:47:51.278Z,94707.38
2023-07-20T04:50:17.678Z,94704.81
2023-07-20T04:52:44.072Z,94699.03
2023-07-20T04:55:10.463Z,94698.69
2023-07-20T04:57:36.849Z,94696.47
2023-07-20T05:00:03.264Z,94697.97
2023-07-20T05:02:29.736Z,94693.69
2023-07-20T05:04:56.160Z,94696.00
2023-07-20T05:07:22.544Z,94691.13
2023-07-20T05:09:48.930Z,94690.88
2023-07-20T05:12:15.327Z,94686.47
2023-07-20T05:14:41.728Z,94691.13
2023-07-20T05:17:08.111Z,94688.41
2023-07-20T05:19:34.517Z,94694.34
2023-07-20T05:22:00.892Z,94686.78
2023-07-20T05:24:27.376Z,94688.50
2023-07-20T05:26:53.848Z,94681.00
2023-07-20T05:29:20.229Z,94682.59
2023-07-20T05:31:46.624Z,94690.78
2023-07-20T05:34:13.056Z,94686.22
2023-07-20T05:36:39.489Z,94688.50
2023-07-20T05:39:05.864Z,94676.94
2023-07-20T05:41:32.261Z,94678.66
2023-07-20T05:43:58.653Z,94672.09
2023-07-20T05:46:25.369Z,94681.09
2023-07-20T05:48:52.099Z,94677.66
2023-07-20T05:51:18.472Z,94678.66
2023-07-20T05:53:44.882Z,94679.22
2023-07-20T05:56:11.271Z,94680.44
2023-07-20T05:58:37.658Z,94683.19
2023-07-20T06:01:04.103Z,94681.38
2023-07-20T06:03:30.523Z,94681.81
2023-07-20T06:05:56.973Z,94685.44
2023-07-20T06:08:23.375Z,94680.09
2023-07-20T06:10:49.754Z,94678.63
2023-07-20T06:13:16.138Z,94687.66
2023-07-20T06:15:42.580Z,94686.91
2023-07-20T06:18:08.984Z,94693.09
2023-07-20T06:20:35.431Z,94690.00
2023-07-20T06:23:01.919Z,94683.13
2023-07-20T06:25:28.379Z,94679.41
2023-07-20T06:27:54.863Z,94676.25
2023-07-20T06:30:21.413Z,94668.59
2023-07-20T06:32:47.865Z,94678.34
2023-07-20T06:35:14.281Z,94669.63
2023-07-20T06:37:40.656Z,94663.34
2023-07-20T06:45:05.621Z,94672.84
2023-07-20T06:47:32.044Z,94665.19
2023-07-20T06:49:58.434Z,94672.19
2023-07-20T06:52:24.792Z,94666.88
2023-07-20T06:54:51.284Z,94664.59
2023-07-20T06:57:19.065Z,94670.75
2023-07-20T07:02:20.635Z,94671.28
2023-07-20T07:04:47.110Z,94661.91
2023-07-20T07:07:13.545Z,94664.72
2023-07-20T07:09:39.916Z,94663.97
2023-07-20T07:12:06.291Z,94663.97
2023-07-20T07:14:33.349Z,94669.66
2023-07-20T07:17:00.015Z,94665.16
2023-07-20T07:19:26.516Z,94669.19
2023-07-20T07:21:52.882Z,94668.13
2023-07-20T07:24:20.396Z,94667.53
2023-07-20T07:26:46.919Z,94670.56
2023-07-20T07:29:13.309Z,94662.53
2023-07-20T07:31:39.808Z,94658.19
2023-07-20T07:34:06.266Z,94657.16
2023-07-20T07:36:32.701Z,94660.16
2023-07-20T07:41:28.390Z,94657.00
2023-07-20T07:43:54.797Z,94660.88
2023-07-20T07:46:21.448Z,94657.72
2023-07-20T07:48:48.170Z,94652.31
2023-07-20T07:51:14.559Z,94651.06
2023-07-20T07:53:40.961Z,94654.00
2023-07-20T07:56:07.350Z,94653.47
2023-07-20T07:58:33.722Z,94651.81
2023-07-20T08:01:00.124Z,94652.94
2023-07-20T08:03:26.534Z,94652.47
2023-07-20T08:05:53.324Z,94648.47
2023-07-20T08:08:20.775Z,94642.53
2023-07-20T08:10:47.262Z,94646.28
2023-07-20T08:13:13.677Z,94641.19
2023-07-20T08:15:40.066Z,94640.38
2023-07-20T08:18:06.592Z,94639.06
2023-07-20T08:20:33.113Z,94632.03
2023-07-20T08:22:59.507Z,94642.00
2023-07-20T08:25:25.881Z,94630.97
2023-07-20T08:27:52.325Z,94642.81
2023-07-20T08:30:18.725Z,94627.19
2023-07-20T08:32:45.162Z,94628.28
2023-07-20T08:35:11.584Z,94630.97
2023-07-20T08:37:37.987Z,94627.16
2023-07-20T08:40:04.398Z,94632.25
2023-07-20T08:42:30.792Z,94622.03
2023-07-20T08:44:57.201Z,94620.66
2023-07-20T08:47:23.644Z,94617.66
2023-07-20T08:49:50.046Z,94619.50
2023-07-20T08:52:16.482Z,94615.44
2023-07-20T08:54:42.875Z,94615.41
2023-07-20T08:57:09.254Z,94619.09
2023-07-20T08:59:35.636Z,94611.72
2023-07-20T09:02:02.093Z,94617.13
2023-07-20T09:04:28.530Z,94611.97
2023-07-20T09:06:54.913Z,94611.63
2023-07-20T09:09:21.304Z,94603.16
2023-07-20T09:11:47.678Z,94593.75
2023-07-20T09:14:14.050Z,94595.88
2023-07-20T09:16:40.515Z,94594.22
2023-07-20T09:19:08.585Z,94596.31
2023-07-20T09:21:35.059Z,94589.84
2023-07-20T09:24:01.450Z,94588.03
2023-07-20T09:26:28.742Z,94585.84
2023-07-20T09:28:55.449Z,94584.72
2023-07-20T09:31:21.871Z,94578.94
2023-07-20T09:36:57.810Z,94580.66
2023-07-20T09:39:05.431Z,94567.03
2023-07-20T09:44:01.883Z,94571.84
2023-07-20T09:51:26.883Z,94572.47
2023-07-20T09:53:53.261Z,94561.28
2023-07-20T09:56:21.916Z,94564.81
2023-07-20T09:58:49.131Z,94561.97
2023-07-20T10:01:15.607Z,94550.59
2023-07-20T10:03:42.170Z,94548.59
2023-07-20T10:06:08.684Z,94548.22
2023-07-20T10:11:04.422Z,94552.63
2023-07-20T10:13:30.806Z,94547.38
2023-07-20T10:15:57.230Z,94543.19
2023-07-20T10:18:23.654Z,94535.25
2023-07-20T10:23:19.351Z,94529.13
2023-07-20T10:25:45.731Z,94532.94
2023-07-20T10:28:12.183Z,94534.63
2023-07-20T10:30:38.577Z,94530.81
2023-07-20T10:33:05.004Z,94525.00
2023-07-20T10:35:31.436Z,94521.31
2023-07-20T10:37:57.833Z,94516.72
2023-07-20T10:40:24.254Z,94520.16
2023-07-20T10:42:50.659Z,94519.09
2023-07-20T10:45:17.051Z,94519.44
2023-07-20T10:47:43.502Z,94510.66
2023-07-20T10:50:09.911Z,94521.72
2023-07-20T10:52:36.292Z,94523.03
2023-07-20T10:55:02.678Z,94524.66
2023-07-20T10:57:29.087Z,94508.69
2023-07-20T10:59:55.458Z,94512.28
2023-07-20T11:02:21.968Z,94509.25
2023-07-20T11:04:48.472Z,94505.19
2023-07-20T11:07:14.993Z,94493.72
2023-07-20T11:09:41.476Z,94491.56
2023-07-20T11:12:07.876Z,94485.88
2023-07-20T11:14:34.286Z,94490.59
2023-07-20T11:17:00.819Z,94488.41
2023-07-20T11:22:02.686Z,94484.56
2023-07-20T11:24:30.946Z,94481.50
2023-07-20T11:26:57.485Z,94485.50
2023-07-20T11:29:31.088Z,94480.19
2023-07-20T11:31:59.038Z,94479.84
2023-07-20T11:34:25.433Z,94471.94
2023-07-20T11:39:21.111Z,94473.06
2023-07-20T11:41:47.488Z,94469.53
2023-07-20T11:44:13.976Z,94456.59
2023-07-20T11:46:40.423Z,94461.09
2023-07-20T11:49:06.803Z,94455.13
2023-07-20T11:51:33.199Z,94452.44
2023-07-20T11:53:59.591Z,94449.19
2023-07-20T11:56:26.037Z,94444.09
2023-07-20T11:58:52.417Z,94448.91
2023-07-20T12:01:18.829Z,94442.22
2023-07-20T12:03:45.278Z,94443.03
2023-07-20T12:06:11.710Z,94434.66
2023-07-20T12:08:38.094Z,94441.19
2023-07-20T12:11:04.486Z,94432.09
2023-07-20T12:13:30.874Z,94428.75
2023-07-20T12:15:57.275Z,94424.75
2023-07-20T12:18:23.666Z,94412.25
2023-07-20T12:20:50.075Z,94414.06
2023-07-20T12:23:16.464Z,94405.91
2023-07-20T12:25:42.998Z,94411.84
2023-07-20T12:28:09.397Z,94401.25
2023-07-20T12:30:35.765Z,94404.00
2023-07-20T12:33:02.184Z,94402.00
2023-07-20T12:35:28.650Z,94394.25
2023-07-20T12:37:55.049Z,94397.97
2023-07-20T12:40:21.437Z,94402.16
2023-07-20T12:42:47.821Z,94405.00
2023-07-20T12:45:14.222Z,94404.25
2023-07-20T12:47:40.655Z,94396.22
2023-07-20T12:50:07.066Z,94397.72
2023-07-20T12:52:33.446Z,94393.09
2023-07-20T12:54:59.824Z,94378.94
2023-07-20T12:57:26.208Z,94367.13
2023-07-20T12:59:52.582Z,94381.41
2023-07-20T13:02:18.973Z,94381.88
2023-07-20T13:04:45.384Z,94386.03
2023-07-20T13:09:41.060Z,94375.13
2023-07-20T13:12:07.435Z,94383.94
2023-07-20T13:14:33.827Z,94372.22
2023-07-20T13:17:00.212Z,94377.56
2023-07-20T13:19:27.699Z,94374.19
2023-07-20T13:21:55.665Z,94377.06
2023-07-20T13:24:22.089Z,94374.66
2023-07-20T13:26:48.530Z,94365.38
2023-07-20T13:29:14.911Z,94366.66
2023-07-20T13:31:42.473Z,94355.44
2023-07-20T13:34:09.226Z,94364.38
2023-07-20T13:36:36.761Z,94355.78
2023-07-20T13:39:03.291Z,94350.47
2023-07-20T13:41:30.304Z,94353.00
2023-07-20T13:43:58.174Z,94355.44
2023-07-20T13:48:55.808Z,94346.19
2023-07-20T13:53:52.423Z,94344.63
2023-07-20T13:56:21.491Z,94335.16
2023-07-20T13:58:50.824Z,94338.72
2023-07-20T14:01:29.473Z,94333.97
2023-07-20T14:03:56.596Z,94336.84
2023-07-20T14:06:25.392Z,94326.19
2023-07-20T14:08:53.057Z,94330.91
2023-07-20T14:13:48.752Z,94321.66
2023-07-20T14:16:15.179Z,94322.44
2023-07-20T14:18:42.063Z,94318.28
2023-07-20T14:21:09.640Z,94323.38
2023-07-20T14:23:36.626Z,94326.44
2023-07-20T14:26:03.336Z,94324.19
2023-07-20T14:28:29.752Z,94304.63
2023-07-20T14:30:56.218Z,94304.81
2023-07-20T14:33:22.613Z,94304.56
2023-07-20T14:35:49.031Z,94301.31
2023-07-20T14:38:15.453Z,94296.03
2023-07-20T14:40:41.817Z,94301.88
2023-07-20T14:43:08.205Z,94290.75
2023-07-20T14:45:34.613Z,94299.47
2023-07-20T14:48:01.054Z,94286.56
2023-07-20T14:50:27.570Z,94294.63
2023-07-20T14:52:53.979Z,94288.53
2023-07-20T14:55:20.366Z,94286.91
2023-07-20T14:57:46.752Z,94292.28
2023-07-20T15:00:13.168Z,94286.47
2023-07-20T15:02:39.588Z,94288.91
2023-07-20T15:05:06.015Z,94293.72
2023-07-20T15:07:32.411Z,94292.00
2023-07-20T15:09:58.864Z,94290.41
2023-07-20T15:12:25.296Z,94294.25
2023-07-20T15:14:51.679Z,94292.34
2023-07-20T15:17:18.077Z,94287.69
2023-07-20T15:19:44.449Z,94292.91
2023-07-20T15:22:11.128Z,94288.09
2023-07-20T15:24:37.959Z,94287.66
2023-07-20T15:27:04.574Z,94289.22
2023-07-20T15:32:00.932Z,94282.47
2023-07-20T15:34:28.540Z,94282.97
2023-07-20T15:36:55.226Z,94276.44
2023-07-20T15:39:21.639Z,94279.13
2023-07-20T15:41:48.075Z,94277.28
2023-07-20T15:44:14.453Z,94283.06
2023-07-20T15:46:40.938Z,94277.06
2023-07-20T15:49:07.374Z,94280.06
2023-07-20T15:51:33.947Z,94277.53
2023-07-20T15:54:00.337Z,94277.06
2023-07-20T15:56:26.723Z,94279.00
2023-07-20T15:58:53.743Z,94271.91
2023-07-20T16:01:20.229Z,94269.22
2023-07-20T16:03:46.637Z,94272.94
2023-07-20T16:06:13.040Z,94278.91
2023-07-20T16:08:39.444Z,94281.59
2023-07-20T16:11:11.890Z,94269.06
2023-07-20T16:13:38.274Z,94273.19
2023-07-20T16:16:04.681Z,94271.22
2023-07-20T16:18:31.057Z,94273.34
2023-07-20T16:20:57.441Z,94265.06
2023-07-20T16:23:23.928Z,94263.63
2023-07-20T16:25:50.304Z,94267.72
2023-07-20T16:28:16.697Z,94269.19
2023-07-20T16:30:43.102Z,94267.28
2023-07-20T16:33:09.537Z,94271.44
2023-07-20T16:40:56.229Z,94270.63
2023-07-20T16:45:50.121Z,94263.13
2023-07-20T16:48:19.255Z,94269.19
2023-07-20T16:50:46.074Z,94272.53
2023-07-20T16:53:12.464Z,94266.81
2023-07-20T16:55:38.847Z,94262.78
2023-07-20T16:58:05.251Z,94259.41
2023-07-20T17:00:31.668Z,94262.34
2023-07-20T17:02:58.194Z,94269.56
2023-07-20T17:05:24.766Z,94262.00
2023-07-20T17:07:51.161Z,94268.72
2023-07-20T17:10:17.565Z,94271.78
2023-07-20T17:12:43.943Z,94268.94
2023-07-20T17:15:10.357Z,94263.63
2023-07-20T17:17:36.859Z,94266.00
2023-07-20T17:22:32.677Z,94266.66
2023-07-20T17:27:28.476Z,94266.00
2023-07-20T17:29:55.071Z,94272.16
2023-07-20T17:32:21.644Z,94270.88
2023-07-20T17:34:48.086Z,94270.06
2023-07-20T17:37:17.427Z,94270.41
2023-07-20T17:44:42.632Z,94274.63
2023-07-20T17:49:38.295Z,94268.06
2023-07-20T17:52:04.697Z,94269.44
2023-07-20T17:54:31.102Z,94279.63
2023-07-20T17:56:57.503Z,94275.44
2023-07-20T17:59:23.895Z,94273.59
2023-07-20T18:01:50.391Z,94277.66
2023-07-20T18:04:16.880Z,94273.03
2023-07-20T18:06:43.448Z,94277.38
2023-07-20T18:09:09.843Z,94275.94
2023-07-20T18:11:38.166Z,94269.91
2023-07-20T18:14:06.141Z,94279.38
2023-07-20T18:16:32.538Z,94277.75
2023-07-20T18:18:58.917Z,94277.78
2023-07-20T18:21:25.568Z,94284.03
2023-07-20T18:23:52.224Z,94285.63
2023-07-20T18:26:18.632Z,94281.94
2023-07-20T18:28:45.018Z,94278.69
2023-07-20T18:31:11.458Z,94286.44
2023-07-20T18:33:37.858Z,94280.72
2023-07-20T18:36:04.260Z,94281.69
2023-07-20T18:38:30.656Z,94284.94
2023-07-20T18:40:57.046Z,94285.97
2023-07-20T18:43:23.424Z,94282.66
2023-07-20T18:45:49.836Z,94280.63
2023-07-20T18:48:16.285Z,94279.41
2023-07-20T18:50:42.675Z,94280.16
2023-07-20T18:53:09.090Z,94283.03
2023-07-20T18:55:35.527Z,94284.75
2023-07-20T18:58:01.908Z,94294.13
2023-07-20T19:00:28.328Z,94285.25
2023-07-20T19:02:54.826Z,94287.69
2023-07-20T19:05:21.316Z,94290.69
2023-07-20T19:07:47.738Z,94287.06
2023-07-20T19:10:14.121Z,94291.88
2023-07-20T19:12:40.518Z,94294.41
2023-07-20T19:15:06.902Z,94297.84
2023-07-20T19:17:33.337Z,94301.84
2023-07-20T19:19:59.788Z,94298.50
2023-07-20T19:22:26.190Z,94296.09
2023-07-20T19:24:52.630Z,94297.38
2023-07-20T19:27:19.081Z,94300.97
2023-07-20T19:29:45.504Z,94302.00
2023-07-20T19:32:12.001Z,94301.88
2023-07-20T19:34:38.433Z,94305.22
2023-07-20T19:37:04.833Z,94310.63
2023-07-20T19:39:31.230Z,94312.47
2023-07-20T19:41:57.623Z,94307.44
2023-07-20T19:44:24.133Z,94310.38
2023-07-20T19:46:50.628Z,94310.38
2023-07-20T19:49:17.066Z,94316.44
2023-07-20T19:51:43.448Z,94321.47
2023-07-20T19:56:39.195Z,94316.28
2023-07-20T19:59:05.623Z,94322.97
2023-07-20T20:06:30.592Z,94333.66
2023-07-20T20:08:56.982Z,94328.34
2023-07-20T20:11:23.364Z,94324.78
2023-07-20T20:13:49.747Z,94333.59
2023-07-20T20:16:16.148Z,94339.19
2023-07-20T20:18:42.529Z,94335.28
2023-07-20T20:21:08.911Z,94336.03
2023-07-20T20:23:37.297Z,94337.88
2023-07-20T20:26:03.681Z,94335.59
2023-07-20T20:28:30.056Z,94341.06
2023-07-20T20:30:56.523Z,94332.97
2023-07-20T20:33:25.380Z,94345.97
2023-07-20T20:35:52.502Z,94340.94
2023-07-20T20:38:18.885Z,94336.38
2023-07-20T20:40:45.288Z,94339.16
2023-07-20T20:43:11.677Z,94338.59
2023-07-20T20:45:38.080Z,94343.84
2023-07-20T20:48:04.498Z,94343.59
2023-07-20T20:50:30.902Z,94346.66
2023-07-20T20:52:57.268Z,94341.81
2023-07-20T20:55:23.660Z,94339.38
2023-07-20T20:57:50.038Z,94340.50
2023-07-20T21:00:16.436Z,94332.47
2023-07-20T21:02:43.541Z,94336.81
2023-07-20T21:05:11.126Z,94337.47
2023-07-20T21:07:37.516Z,94344.28
2023-07-20T21:10:03.898Z,94341.06
2023-07-20T21:12:30.292Z,94343.47
2023-07-20T21:14:56.671Z,94344.56
2023-07-20T21:17:23.110Z,94344.84
2023-07-20T21:19:49.522Z,94353.72
2023-07-20T21:22:15.906Z,94349.97
2023-07-20T21:24:42.388Z,94352.66
2023-07-20T21:27:08.812Z,94358.06
2023-07-20T21:29:35.214Z,94358.59
2023-07-20T21:32:01.612Z,94370.19
2023-07-20T21:34:28.014Z,94369.66
2023-07-20T21:36:54.392Z,94370.72
2023-07-20T21:39:20.815Z,94360.78
2023-07-20T21:41:47.238Z,94367.78
2023-07-20T21:44:13.641Z,94358.63
2023-07-20T21:46:40.096Z,94357.81
2023-07-20T21:49:06.517Z,94359.97
2023-07-20T21:51:32.945Z,94361.88
2023-07-20T21:53:59.338Z,94357.28
2023-07-20T21:56:26.047Z,94351.38
2023-07-20T21:58:52.712Z,94353.00
2023-07-20T22:03:50.734Z,94349.25
2023-07-20T22:06:17.282Z,94359.19
2023-07-20T22:08:43.694Z,94352.19
2023-07-20T22:11:10.107Z,94346.28
2023-07-20T22:13:36.504Z,94342.53
2023-07-20T22:16:02.923Z,94347.09
2023-07-20T22:18:35.253Z,94353.25
2023-07-20T22:21:02.942Z,94354.56
2023-07-20T22:23:29.340Z,94352.72
2023-07-20T22:25:55.743Z,94349.97
2023-07-20T22:28:22.130Z,94352.41
2023-07-20T22:30:48.537Z,94355.59
2023-07-20T22:33:14.939Z,94359.88
2023-07-20T22:35:41.335Z,94364.47
2023-07-20T22:38:07.800Z,94371.97
2023-07-20T22:40:34.203Z,94362.81
2023-07-20T22:43:00.599Z,94370.84
2023-07-20T22:45:26.986Z,94365.28
2023-07-20T22:47:53.401Z,94358.81
2023-07-20T22:50:19.818Z,94362.53
2023-07-20T22:52:46.201Z,94357.22
2023-07-20T22:55:12.585Z,94361.47
2023-07-20T22:57:38.953Z,94354.25
2023-07-20T23:00:05.335Z,94357.47
2023-07-20T23:02:31.824Z,94349.88
2023-07-20T23:04:58.314Z,94355.75
2023-07-20T23:07:24.707Z,94359.53
2023-07-20T23:09:51.133Z,94346.66
2023-07-20T23:12:17.539Z,94356.56
2023-07-20T23:14:43.925Z,94352.28
2023-07-20T23:17:10.316Z,94349.09
2023-07-20T23:19:36.716Z,94339.38
2023-07-20T23:22:03.080Z,94346.66
2023-07-20T23:24:29.531Z,94346.47
2023-07-20T23:26:55.946Z,94342.72
2023-07-20T23:29:22.321Z,94338.94
2023-07-20T23:31:48.790Z,94341.28
2023-07-20T23:34:15.195Z,94325.69
2023-07-20T23:36:41.585Z,94333.69
2023-07-20T23:39:07.988Z,94339.56
2023-07-20T23:41:34.390Z,94339.28
2023-07-20T23:44:00.766Z,94330.50
2023-07-20T23:46:27.406Z,94332.13
2023-07-20T23:48:53.996Z,94325.22
2023-07-20T23:51:20.396Z,94323.88
2023-07-20T23:53:46.788Z,94331.06
2023-07-20T23:56:13.162Z,94320.56
2023-07-20T23:58:39.550Z,94309.81
